Latest Weather Observations for Fawkner Beacon

IDV60801

Issued at 7:02 pm EDT Thursday 23 March 2017 (issued every 30 minutes, with the page automatically refreshed every 10 minutes)

About weather observations | Map of weather stations | Latest weather observations for VIC | Other Formats
Station Details ID: 086376 Name: FAWKNER BEACON Lat: -37.91 Lon: 144.93 Height: 17.0 m
Data from the previous 72 hours. | See also: Recent months for locations in Victoria
Date/Time
EDT
Temp
°C
App
Temp
°C
Dew
Point
°C
Rel
Hum
%
Delta-T
°C
Wind Press
QNH
hPa
Press
MSL
hPa
Rain since
9am
mm
Dir  Spd
km/h
Gust
km/h
Spd
kts
Gust
kts
23/07:00pm - - - - - ESE 39 48 21 26 - - -
23/06:30pm - - - - - ESE 43 50 23 27 - - -
23/06:00pm - - - - - ESE 41 48 22 26 - - -
23/05:30pm - - - - - ESE 37 46 20 25 - - -
23/05:00pm - - - - - ESE 35 43 19 23 - - -
23/04:30pm - - - - - ESE 37 44 20 24 - - -
23/04:00pm - - - - - SE 33 43 18 23 - - -
23/03:30pm - - - - - ESE 33 41 18 22 - - -
23/03:00pm - - - - - ESE 35 43 19 23 - - -
23/02:30pm - - - - - ESE 33 43 18 23 - - -
23/02:00pm - - - - - ESE 37 43 20 23 - - -
23/01:30pm - - - - - ESE 39 46 21 25 - - -
23/01:00pm - - - - - ESE 41 48 22 26 - - -
23/12:30pm - - - - - ESE 44 50 24 27 - - -
23/12:00pm - - - - - ESE 43 50 23 27 - - -
23/11:30am - - - - - ESE 43 52 23 28 - - -
23/11:00am - - - - - E 46 54 25 29 - - -
23/10:30am - - - - - ESE 41 54 22 29 - - -
23/10:00am - - - - - ESE 41 50 22 27 - - -
23/09:30am - - - - - ESE 46 54 25 29 - - -
23/09:00am - - - - - ESE 46 57 25 31 - - -
23/08:30am - - - - - ESE 44 57 24 31 - - -
23/08:00am - - - - - ESE 46 57 25 31 - - -
23/07:30am - - - - - ESE 44 54 24 29 - - -
23/07:00am - - - - - ESE 44 54 24 29 - - -
23/06:30am - - - - - ESE 43 54 23 29 - - -
23/06:00am - - - - - ESE 44 54 24 29 - - -
23/05:30am - - - - - ESE 43 52 23 28 - - -
23/05:00am - - - - - ESE 43 54 23 29 - - -
23/04:30am - - - - - ESE 43 54 23 29 - - -
23/04:00am - - - - - ESE 46 57 25 31 - - -
23/03:30am - - - - - ESE 44 54 24 29 - - -
23/03:00am - - - - - ESE 44 52 24 28 - - -
23/02:30am - - - - - ESE 44 54 24 29 - - -
23/02:00am - - - - - ESE 46 59 25 32 - - -
23/01:30am - - - - - E 46 59 25 32 - - -
23/01:00am - - - - - ESE 41 52 22 28 - - -
23/12:30am - - - - - ESE 39 57 21 31 - - -
23/12:28am - - - - - ESE 39 57 21 31 - - -
23/12:00am - - - - - E 43 50 23 27 - - -
 
Date/Time
EDT
Temp
°C
App
Temp
°C
Dew
Point
°C
Rel
Hum
%
Delta-T
°C
Wind Press
QNH
hPa
Press
MSL
hPa
Rain since
9am
mm
Dir  Spd
km/h
Gust
km/h
Spd
kts
Gust
kts
22/11:41pm - - - - - ESE 41 59 22 32 - - -
22/11:30pm - - - - - ESE 44 57 24 31 - - -
22/11:00pm - - - - - ESE 37 52 20 28 - - -
22/10:30pm - - - - - ESE 39 46 21 25 - - -
22/10:00pm - - - - - ESE 41 46 22 25 - - -
22/09:30pm - - - - - ESE 43 52 23 28 - - -
22/09:00pm - - - - - ESE 44 54 24 29 - - -
22/08:30pm - - - - - ESE 43 52 23 28 - - -
22/08:00pm - - - - - ESE 43 54 23 29 - - -
22/07:30pm - - - - - ESE 44 50 24 27 - - -
22/07:00pm - - - - - ESE 46 52 25 28 - - -
22/06:30pm - - - - - ESE 44 54 24 29 - - -
22/06:00pm - - - - - ESE 43 50 23 27 - - -
22/05:30pm - - - - - ESE 43 52 23 28 - - -
22/05:00pm - - - - - SE 44 50 24 27 - - -
22/04:30pm - - - - - SE 41 46 22 25 - - -
22/04:00pm - - - - - ESE 43 50 23 27 - - -
22/03:30pm - - - - - ESE 41 48 22 26 - - -
22/03:00pm - - - - - ESE 41 46 22 25 - - -
22/02:30pm - - - - - ESE 41 46 22 25 - - -
22/02:00pm - - - - - SE 35 44 19 24 - - -
22/01:30pm - - - - - SE 33 41 18 22 - - -
22/01:00pm - - - - - SE 39 46 21 25 - - -
22/12:30pm - - - - - SE 37 46 20 25 - - -
22/12:00pm - - - - - SE 37 44 20 24 - - -
22/11:30am - - - - - SE 35 41 19 22 - - -
22/11:00am - - - - - SE 37 46 20 25 - - -
22/10:30am - - - - - SE 39 44 21 24 - - -
22/10:00am - - - - - SE 37 43 20 23 - - -
22/09:30am - - - - - SE 39 44 21 24 - - -
22/09:00am - - - - - SE 41 46 22 25 - - -
22/08:30am - - - - - SSE 37 44 20 24 - - -
22/08:00am - - - - - SSE 35 43 19 23 - - -
22/07:30am - - - - - SSE 43 50 23 27 - - -
22/07:00am - - - - - SSE 43 52 23 28 - - -
22/06:30am - - - - - SSE 43 52 23 28 - - -
22/06:00am - - - - - SSE 39 50 21 27 - - -
22/05:30am - - - - - SSE 39 46 21 25 - - -
22/05:00am - - - - - SSE 37 44 20 24 - - -
22/04:30am - - - - - SSE 33 39 18 21 - - -
22/04:00am - - - - - SSE 32 35 17 19 - - -
22/03:30am - - - - - SSE 32 33 17 18 - - -
22/03:00am - - - - - SSE 32 35 17 19 - - -
22/02:30am - - - - - SSE 28 33 15 18 - - -
22/02:00am - - - - - SE 19 22 10 12 - - -
22/01:30am - - - - - SE 17 22 9 12 - - -
22/01:00am - - - - - SSE 15 20 8 11 - - -
22/12:30am - - - - - SSW 9 11 5 6 - - -
22/12:00am - - - - - NW 17 22 9 12 - - -
 
Date/Time
EDT
Temp
°C
App
Temp
°C
Dew
Point
°C
Rel
Hum
%
Delta-T
°C
Wind Press
QNH
hPa
Press
MSL
hPa
Rain since
9am
mm
Dir  Spd
km/h
Gust
km/h
Spd
kts
Gust
kts
21/11:30pm - - - - - NW 24 28 13 15 - - -
21/11:00pm - - - - - WNW 24 28 13 15 - - -
21/10:30pm - - - - - NNW 13 17 7 9 - - -
21/10:00pm - - - - - NNW 17 22 9 12 - - -
21/09:30pm - - - - - NNW 15 20 8 11 - - -
21/09:00pm - - - - - NW 20 24 11 13 - - -
21/08:30pm - - - - - NW 17 24 9 13 - - -
21/08:00pm - - - - - NNW 13 17 7 9 - - -
21/07:30pm - - - - - N 9 13 5 7 - - -
21/07:00pm - - - - - N 13 15 7 8 - - -
21/06:30pm - - - - - N 15 20 8 11 - - -
21/06:00pm - - - - - ENE 24 39 13 21 - - -
21/05:30pm - - - - - ESE 33 39 18 21 - - -
21/05:00pm - - - - - ESE 30 32 16 17 - - -
21/04:30pm - - - - - ESE 26 30 14 16 - - -
21/04:00pm - - - - - ESE 24 30 13 16 - - -
21/03:30pm - - - - - E 17 22 9 12 - - -
21/03:00pm - - - - - ENE 22 32 12 17 - - -
21/02:30pm - - - - - ESE 22 26 12 14 - - -
21/02:00pm - - - - - SE 22 26 12 14 - - -
21/01:30pm - - - - - SE 17 20 9 11 - - -
21/01:00pm - - - - - SE 13 15 7 8 - - -
21/12:30pm - - - - - ESE 9 11 5 6 - - -
21/12:00pm - - - - - ENE 9 13 5 7 - - -
21/11:30am - - - - - NE 9 13 5 7 - - -
21/11:00am - - - - - ENE 11 15 6 8 - - -
21/10:30am - - - - - E 15 17 8 9 - - -
21/10:00am - - - - - E 13 17 7 9 - - -
21/09:30am - - - - - ESE 17 20 9 11 - - -
21/09:00am - - - - - ESE 17 20 9 11 - - -
21/08:30am - - - - - ESE 19 22 10 12 - - -
21/08:00am - - - - - ESE 24 26 13 14 - - -
21/07:30am - - - - - ESE 24 28 13 15 - - -
21/07:00am - - - - - ESE 20 24 11 13 - - -
21/06:30am - - - - - ESE 17 22 9 12 - - -
21/06:00am - - - - - ENE 7 9 4 5 - - -
21/05:30am - - - - - CALM 0 0 0 0 - - -
21/05:00am - - - - - WNW 6 7 3 4 - - -
21/04:30am - - - - - NNW 6 7 3 4 - - -
21/04:00am - - - - - NNW 7 11 4 6 - - -
21/03:30am - - - - - NW 13 15 7 8 - - -
21/03:00am - - - - - WNW 15 17 8 9 - - -
21/02:30am - - - - - NNW 22 26 12 14 - - -
21/02:12am - - - - - NNW 28 46 15 25 - - -
21/02:00am - - - - - N 33 46 18 25 - - -
21/01:52am - - - - - NNW 28 44 15 24 - - -
21/01:30am - - - - - NW 19 22 10 12 - - -
21/01:00am - - - - - NNW 17 24 9 13 - - -
21/12:30am - - - - - NNW 11 20 6 11 - - -
21/12:00am - - - - - N 6 11 3 6 - - -
 
Date/Time
EDT
Temp
°C
App
Temp
°C
Dew
Point
°C
Rel
Hum
%
Delta-T
°C
Wind Press
QNH
hPa
Press
MSL
hPa
Rain since
9am
mm
Dir  Spd
km/h
Gust
km/h
Spd
kts
Gust
kts
20/11:30pm - - - - - ESE 7 11 4 6 - - -
20/11:00pm - - - - - SE 7 9 4 5 - - -
20/10:30pm - - - - - NE 7 9 4 5 - - -
20/10:00pm - - - - - E 11 15 6 8 - - -
20/09:30pm - - - - - SSE 17 22 9 12 - - -
20/09:00pm - - - - - S 15 20 8 11 - - -
20/08:30pm - - - - - SSE 15 20 8 11 - - -
20/08:00pm - - - - - SSE 22 26 12 14 - - -
20/07:30pm - - - - - SSE 26 30 14 16 - - -

Other Formats:

Comma delimited format used in spreadsheet applications
http://www.bom.gov.au/fwo/IDV60801/IDV60801.95872.axf

JavaScript Object Notation format (JSON) in row-major order
http://www.bom.gov.au/fwo/IDV60801/IDV60801.95872.json